METAR EDWI 250950Z AUTO 29013KT 9999 OVC018 09/01 Q1007=

Die Wetterinformationen haben nur informativen Charakter
und dürfen nicht zum Zwecke der Flugplanung benutzt werden.

StartseiteAktuellesyourways Flugpläne WHV

Die Flugpläne von und nach Wilhelmshaven, gültig vom 25.03.2018 - 27.10.2018


 Reservierungshotline: 04743 95695 90

Online buchen auf yourways.de

 

 

Go to top